Rosetown, Canada
Current Conditions -  °F | °C
As of 4:00 PM on Wednesday 28 Jan 2015 (Local Time) from CYKY Reporting Station
Few Clouds Few Clouds  
Wind Chill: 20°   Ceiling: Unl
Heat Index: 30°   Visibility: 15mi
Dew Point: 23°   Wind: 14mph
Humidity: 75%   Direction: 320°NW
Pressure: 30.24"   Gusts: 26mph
Location:  51.55°N, 107.99°W
Report Text: CYKY 282200Z 32012G23KT 15SM FEW030 M01/M05 A3024 RMK SC1 SLP274
Loading
Personal Weather Stations






























Interactive Weather Map New forecast layout! Learn more

10-Day Weather Forecast

Advertisements
Track Severe Weather on mobile